sensor_id;sensor_type;location;lat;lon;timestamp;P1;durP1;ratioP1;P2;durP2;ratioP2
14096;SDS011;7125;48.106;11.544;2023-01-29T00:00:31;23.83;;;16.33;;
14096;SDS011;7125;48.106;11.544;2023-01-29T00:02:58;24.67;;;16.13;;
14096;SDS011;7125;48.106;11.544;2023-01-29T00:05:27;27.43;;;16.07;;
14096;SDS011;7125;48.106;11.544;2023-01-29T00:07:54;23.17;;;16.60;;
14096;SDS011;7125;48.106;11.544;2023-01-29T00:10:21;24.27;;;17.00;;
14096;SDS011;7125;48.106;11.544;2023-01-29T00:12:48;23.00;;;15.17;;
14096;SDS011;7125;48.106;11.544;2023-01-29T00:15:16;25.77;;;16.83;;
14096;SDS011;7125;48.106;11.544;2023-01-29T00:17:43;25.90;;;16.60;;
14096;SDS011;7125;48.106;11.544;2023-01-29T00:20:10;25.67;;;16.93;;
14096;SDS011;7125;48.106;11.544;2023-01-29T00:22:39;21.23;;;16.43;;
14096;SDS011;7125;48.106;11.544;2023-01-29T00:25:06;18.40;;;13.60;;
14096;SDS011;7125;48.106;11.544;2023-01-29T00:27:35;19.20;;;13.43;;
14096;SDS011;7125;48.106;11.544;2023-01-29T00:30:03;19.90;;;14.17;;
14096;SDS011;7125;48.106;11.544;2023-01-29T00:32:40;19.13;;;12.90;;
14096;SDS011;7125;48.106;11.544;2023-01-29T00:35:07;14.03;;;10.30;;
14096;SDS011;7125;48.106;11.544;2023-01-29T00:37:35;17.73;;;10.90;;
14096;SDS011;7125;48.106;11.544;2023-01-29T00:40:04;16.20;;;12.70;;
14096;SDS011;7125;48.106;11.544;2023-01-29T00:42:31;15.20;;;12.30;;
14096;SDS011;7125;48.106;11.544;2023-01-29T00:45:16;18.87;;;12.77;;
14096;SDS011;7125;48.106;11.544;2023-01-29T00:47:44;13.80;;;11.67;;
14096;SDS011;7125;48.106;11.544;2023-01-29T00:50:11;16.50;;;12.47;;
14096;SDS011;7125;48.106;11.544;2023-01-29T00:52:38;13.43;;;11.80;;
14096;SDS011;7125;48.106;11.544;2023-01-29T00:55:07;17.93;;;12.87;;
14096;SDS011;7125;48.106;11.544;2023-01-29T00:57:36;16.33;;;12.43;;
14096;SDS011;7125;48.106;11.544;2023-01-29T01:00:04;15.00;;;10.97;;
14096;SDS011;7125;48.106;11.544;2023-01-29T01:02:33;15.50;;;11.53;;
14096;SDS011;7125;48.106;11.544;2023-01-29T01:05:19;16.60;;;12.07;;
14096;SDS011;7125;48.106;11.544;2023-01-29T01:07:56;16.63;;;11.97;;
14096;SDS011;7125;48.106;11.544;2023-01-29T01:10:26;15.47;;;11.50;;
14096;SDS011;7125;48.106;11.544;2023-01-29T01:12:54;13.30;;;11.40;;
14096;SDS011;7125;48.106;11.544;2023-01-29T01:15:23;16.00;;;11.83;;
14096;SDS011;7125;48.106;11.544;2023-01-29T01:17:53;14.07;;;12.57;;
14096;SDS011;7125;48.106;11.544;2023-01-29T01:20:21;16.50;;;12.93;;
14096;SDS011;7125;48.106;11.544;2023-01-29T01:22:49;14.47;;;11.70;;
14096;SDS011;7125;48.106;11.544;2023-01-29T01:25:18;16.80;;;12.67;;
14096;SDS011;7125;48.106;11.544;2023-01-29T01:27:46;16.23;;;11.37;;
14096;SDS011;7125;48.106;11.544;2023-01-29T01:30:14;13.87;;;10.70;;
14096;SDS011;7125;48.106;11.544;2023-01-29T01:32:41;14.90;;;11.03;;
14096;SDS011;7125;48.106;11.544;2023-01-29T01:35:08;18.50;;;11.80;;
14096;SDS011;7125;48.106;11.544;2023-01-29T01:37:36;14.53;;;10.53;;
14096;SDS011;7125;48.106;11.544;2023-01-29T01:40:03;19.23;;;11.97;;
14096;SDS011;7125;48.106;11.544;2023-01-29T01:42:37;14.50;;;11.57;;
14096;SDS011;7125;48.106;11.544;2023-01-29T01:45:06;15.67;;;11.00;;
14096;SDS011;7125;48.106;11.544;2023-01-29T01:47:45;13.73;;;10.57;;
14096;SDS011;7125;48.106;11.544;2023-01-29T01:50:16;12.20;;;9.90;;
14096;SDS011;7125;48.106;11.544;2023-01-29T01:52:48;12.70;;;10.40;;
14096;SDS011;7125;48.106;11.544;2023-01-29T01:55:18;12.13;;;9.93;;
14096;SDS011;7125;48.106;11.544;2023-01-29T01:57:51;12.47;;;10.87;;
14096;SDS011;7125;48.106;11.544;2023-01-29T02:00:25;12.50;;;9.37;;
14096;SDS011;7125;48.106;11.544;2023-01-29T02:02:52;12.67;;;9.97;;
14096;SDS011;7125;48.106;11.544;2023-01-29T02:05:37;15.53;;;10.27;;
14096;SDS011;7125;48.106;11.544;2023-01-29T02:08:23;14.17;;;9.50;;
14096;SDS011;7125;48.106;11.544;2023-01-29T02:11:15;13.17;;;10.17;;
14096;SDS011;7125;48.106;11.544;2023-01-29T02:13:42;14.37;;;9.23;;
14096;SDS011;7125;48.106;11.544;2023-01-29T02:16:11;10.27;;;9.27;;
14096;SDS011;7125;48.106;11.544;2023-01-29T02:18:38;11.43;;;8.83;;
14096;SDS011;7125;48.106;11.544;2023-01-29T02:21:09;10.47;;;8.40;;
14096;SDS011;7125;48.106;11.544;2023-01-29T02:23:58;13.30;;;9.43;;
14096;SDS011;7125;48.106;11.544;2023-01-29T02:26:52;10.57;;;8.93;;
14096;SDS011;7125;48.106;11.544;2023-01-29T02:29:35;11.47;;;8.20;;
14096;SDS011;7125;48.106;11.544;2023-01-29T02:32:14;11.50;;;9.23;;
14096;SDS011;7125;48.106;11.544;2023-01-29T02:34:47;10.17;;;7.90;;
14096;SDS011;7125;48.106;11.544;2023-01-29T02:37:44;11.27;;;8.97;;
14096;SDS011;7125;48.106;11.544;2023-01-29T02:40:17;13.27;;;8.77;;
14096;SDS011;7125;48.106;11.544;2023-01-29T02:42:54;9.77;;;8.73;;
14096;SDS011;7125;48.106;11.544;2023-01-29T02:45:29;11.57;;;8.40;;
14096;SDS011;7125;48.106;11.544;2023-01-29T02:48:00;10.80;;;9.20;;
14096;SDS011;7125;48.106;11.544;2023-01-29T02:50:30;10.97;;;8.37;;
14096;SDS011;7125;48.106;11.544;2023-01-29T02:53:05;12.53;;;9.33;;
14096;SDS011;7125;48.106;11.544;2023-01-29T02:55:39;12.80;;;9.63;;
14096;SDS011;7125;48.106;11.544;2023-01-29T02:58:12;12.13;;;9.53;;
14096;SDS011;7125;48.106;11.544;2023-01-29T03:00:43;12.67;;;9.43;;
14096;SDS011;7125;48.106;11.544;2023-01-29T03:03:13;13.50;;;10.07;;
14096;SDS011;7125;48.106;11.544;2023-01-29T03:05:45;13.63;;;10.53;;
14096;SDS011;7125;48.106;11.544;2023-01-29T03:08:22;13.27;;;10.67;;
14096;SDS011;7125;48.106;11.544;2023-01-29T03:11:02;16.00;;;11.00;;
14096;SDS011;7125;48.106;11.544;2023-01-29T03:13:34;10.70;;;8.80;;
14096;SDS011;7125;48.106;11.544;2023-01-29T03:16:08;12.77;;;10.07;;
14096;SDS011;7125;48.106;11.544;2023-01-29T03:18:45;12.70;;;9.60;;
14096;SDS011;7125;48.106;11.544;2023-01-29T03:21:18;13.37;;;10.23;;
14096;SDS011;7125;48.106;11.544;2023-01-29T03:24:05;14.93;;;10.10;;
14096;SDS011;7125;48.106;11.544;2023-01-29T03:26:56;10.53;;;9.43;;
14096;SDS011;7125;48.106;11.544;2023-01-29T03:29:47;13.57;;;9.80;;
14096;SDS011;7125;48.106;11.544;2023-01-29T03:32:46;13.90;;;10.20;;
14096;SDS011;7125;48.106;11.544;2023-01-29T03:35:17;12.63;;;8.97;;
14096;SDS011;7125;48.106;11.544;2023-01-29T03:37:59;11.37;;;9.23;;
14096;SDS011;7125;48.106;11.544;2023-01-29T03:40:27;12.07;;;9.70;;
14096;SDS011;7125;48.106;11.544;2023-01-29T03:43:04;11.40;;;9.87;;
14096;SDS011;7125;48.106;11.544;2023-01-29T03:45:38;10.37;;;9.00;;
14096;SDS011;7125;48.106;11.544;2023-01-29T03:48:15;13.87;;;9.30;;
14096;SDS011;7125;48.106;11.544;2023-01-29T03:50:51;11.40;;;8.73;;
14096;SDS011;7125;48.106;11.544;2023-01-29T03:53:24;12.33;;;9.43;;
14096;SDS011;7125;48.106;11.544;2023-01-29T03:55:58;11.60;;;9.07;;
14096;SDS011;7125;48.106;11.544;2023-01-29T03:58:33;12.83;;;9.83;;
14096;SDS011;7125;48.106;11.544;2023-01-29T04:01:06;14.90;;;10.90;;
14096;SDS011;7125;48.106;11.544;2023-01-29T04:03:42;12.43;;;10.17;;
14096;SDS011;7125;48.106;11.544;2023-01-29T04:06:15;14.53;;;10.13;;
14096;SDS011;7125;48.106;11.544;2023-01-29T04:08:57;14.53;;;10.00;;
14096;SDS011;7125;48.106;11.544;2023-01-29T04:11:30;11.93;;;9.63;;
14096;SDS011;7125;48.106;11.544;2023-01-29T04:14:01;11.83;;;9.13;;
14096;SDS011;7125;48.106;11.544;2023-01-29T04:16:30;13.67;;;11.07;;
14096;SDS011;7125;48.106;11.544;2023-01-29T04:19:23;13.80;;;11.37;;
14096;SDS011;7125;48.106;11.544;2023-01-29T04:21:52;13.73;;;11.57;;
14096;SDS011;7125;48.106;11.544;2023-01-29T04:24:32;14.83;;;11.47;;
14096;SDS011;7125;48.106;11.544;2023-01-29T04:27:09;11.90;;;10.07;;
14096;SDS011;7125;48.106;11.544;2023-01-29T04:29:50;14.00;;;11.40;;
14096;SDS011;7125;48.106;11.544;2023-01-29T04:32:31;12.20;;;10.20;;
14096;SDS011;7125;48.106;11.544;2023-01-29T04:35:09;16.43;;;11.30;;
14096;SDS011;7125;48.106;11.544;2023-01-29T04:37:49;17.47;;;11.60;;
14096;SDS011;7125;48.106;11.544;2023-01-29T04:40:29;15.80;;;12.30;;
14096;SDS011;7125;48.106;11.544;2023-01-29T04:43:02;12.57;;;10.43;;
14096;SDS011;7125;48.106;11.544;2023-01-29T04:45:35;14.93;;;12.03;;
14096;SDS011;7125;48.106;11.544;2023-01-29T04:48:12;17.20;;;12.17;;
14096;SDS011;7125;48.106;11.544;2023-01-29T04:50:53;16.43;;;12.50;;
14096;SDS011;7125;48.106;11.544;2023-01-29T04:53:27;13.00;;;10.50;;
14096;SDS011;7125;48.106;11.544;2023-01-29T04:56:03;16.97;;;12.67;;
14096;SDS011;7125;48.106;11.544;2023-01-29T04:58:34;17.13;;;12.83;;
14096;SDS011;7125;48.106;11.544;2023-01-29T05:01:05;13.00;;;11.53;;
14096;SDS011;7125;48.106;11.544;2023-01-29T05:03:36;14.40;;;11.40;;
14096;SDS011;7125;48.106;11.544;2023-01-29T05:06:07;15.53;;;12.30;;
14096;SDS011;7125;48.106;11.544;2023-01-29T05:08:36;15.70;;;13.00;;
14096;SDS011;7125;48.106;11.544;2023-01-29T05:11:06;13.50;;;10.70;;
14096;SDS011;7125;48.106;11.544;2023-01-29T05:13:33;18.27;;;13.60;;
14096;SDS011;7125;48.106;11.544;2023-01-29T05:16:05;15.50;;;12.60;;
14096;SDS011;7125;48.106;11.544;2023-01-29T05:18:37;14.20;;;11.73;;
14096;SDS011;7125;48.106;11.544;2023-01-29T05:21:07;17.30;;;12.37;;
14096;SDS011;7125;48.106;11.544;2023-01-29T05:23:34;17.67;;;12.50;;
14096;SDS011;7125;48.106;11.544;2023-01-29T05:26:01;16.13;;;12.93;;
14096;SDS011;7125;48.106;11.544;2023-01-29T05:28:29;15.77;;;12.50;;
14096;SDS011;7125;48.106;11.544;2023-01-29T05:30:55;18.03;;;12.33;;
14096;SDS011;7125;48.106;11.544;2023-01-29T05:33:23;14.40;;;10.87;;
14096;SDS011;7125;48.106;11.544;2023-01-29T05:35:52;14.50;;;11.20;;
14096;SDS011;7125;48.106;11.544;2023-01-29T05:38:20;15.47;;;9.00;;
14096;SDS011;7125;48.106;11.544;2023-01-29T05:40:48;11.53;;;9.13;;
14096;SDS011;7125;48.106;11.544;2023-01-29T05:43:16;12.43;;;9.00;;
14096;SDS011;7125;48.106;11.544;2023-01-29T05:45:50;11.23;;;8.33;;
14096;SDS011;7125;48.106;11.544;2023-01-29T05:48:18;12.60;;;9.80;;
14096;SDS011;7125;48.106;11.544;2023-01-29T05:50:45;11.70;;;9.10;;
14096;SDS011;7125;48.106;11.544;2023-01-29T05:53:12;14.97;;;10.57;;
14096;SDS011;7125;48.106;11.544;2023-01-29T05:55:42;13.17;;;9.90;;
14096;SDS011;7125;48.106;11.544;2023-01-29T05:58:09;13.07;;;10.40;;
14096;SDS011;7125;48.106;11.544;2023-01-29T06:00:36;13.53;;;9.60;;
14096;SDS011;7125;48.106;11.544;2023-01-29T06:03:03;13.63;;;10.80;;
14096;SDS011;7125;48.106;11.544;2023-01-29T06:05:30;13.87;;;10.33;;
14096;SDS011;7125;48.106;11.544;2023-01-29T06:07:57;14.37;;;11.37;;
14096;SDS011;7125;48.106;11.544;2023-01-29T06:10:24;13.13;;;10.47;;
14096;SDS011;7125;48.106;11.544;2023-01-29T06:12:53;15.40;;;10.97;;
14096;SDS011;7125;48.106;11.544;2023-01-29T06:15:19;14.00;;;10.47;;
14096;SDS011;7125;48.106;11.544;2023-01-29T06:17:46;12.57;;;10.13;;
14096;SDS011;7125;48.106;11.544;2023-01-29T06:20:13;13.83;;;10.43;;
14096;SDS011;7125;48.106;11.544;2023-01-29T06:22:40;14.90;;;10.43;;
14096;SDS011;7125;48.106;11.544;2023-01-29T06:25:07;11.07;;;9.53;;
14096;SDS011;7125;48.106;11.544;2023-01-29T06:27:35;11.83;;;9.43;;
14096;SDS011;7125;48.106;11.544;2023-01-29T06:30:05;10.77;;;9.57;;
14096;SDS011;7125;48.106;11.544;2023-01-29T06:32:32;11.17;;;9.43;;
14096;SDS011;7125;48.106;11.544;2023-01-29T06:34:59;12.40;;;9.63;;
14096;SDS011;7125;48.106;11.544;2023-01-29T06:37:26;11.23;;;9.33;;
14096;SDS011;7125;48.106;11.544;2023-01-29T06:39:53;13.30;;;10.80;;
14096;SDS011;7125;48.106;11.544;2023-01-29T06:42:20;12.10;;;9.53;;
14096;SDS011;7125;48.106;11.544;2023-01-29T06:44:51;11.37;;;9.80;;
14096;SDS011;7125;48.106;11.544;2023-01-29T06:47:20;10.10;;;8.77;;
14096;SDS011;7125;48.106;11.544;2023-01-29T06:49:47;12.37;;;9.83;;
14096;SDS011;7125;48.106;11.544;2023-01-29T06:52:14;12.57;;;10.40;;
14096;SDS011;7125;48.106;11.544;2023-01-29T06:54:41;10.63;;;8.60;;
14096;SDS011;7125;48.106;11.544;2023-01-29T06:57:08;11.70;;;9.50;;
14096;SDS011;7125;48.106;11.544;2023-01-29T06:59:35;11.80;;;9.83;;
14096;SDS011;7125;48.106;11.544;2023-01-29T07:02:02;12.70;;;9.53;;
14096;SDS011;7125;48.106;11.544;2023-01-29T07:04:31;12.27;;;9.77;;
14096;SDS011;7125;48.106;11.544;2023-01-29T07:06:59;14.47;;;10.97;;
14096;SDS011;7125;48.106;11.544;2023-01-29T07:09:26;13.17;;;10.60;;
14096;SDS011;7125;48.106;11.544;2023-01-29T07:11:53;13.83;;;10.60;;
14096;SDS011;7125;48.106;11.544;2023-01-29T07:14:23;13.60;;;9.90;;
14096;SDS011;7125;48.106;11.544;2023-01-29T07:16:50;11.37;;;9.63;;
14096;SDS011;7125;48.106;11.544;2023-01-29T07:19:17;10.83;;;9.53;;
14096;SDS011;7125;48.106;11.544;2023-01-29T07:21:46;12.00;;;9.63;;
14096;SDS011;7125;48.106;11.544;2023-01-29T07:24:13;12.57;;;9.57;;
14096;SDS011;7125;48.106;11.544;2023-01-29T07:26:40;15.07;;;12.97;;
14096;SDS011;7125;48.106;11.544;2023-01-29T07:29:07;19.77;;;12.83;;
14096;SDS011;7125;48.106;11.544;2023-01-29T07:31:34;21.43;;;13.87;;
14096;SDS011;7125;48.106;11.544;2023-01-29T07:34:01;15.83;;;11.97;;
14096;SDS011;7125;48.106;11.544;2023-01-29T07:36:28;13.03;;;9.87;;
14096;SDS011;7125;48.106;11.544;2023-01-29T07:38:57;12.13;;;9.43;;
14096;SDS011;7125;48.106;11.544;2023-01-29T07:41:24;12.10;;;9.17;;
14096;SDS011;7125;48.106;11.544;2023-01-29T07:43:51;12.00;;;8.97;;
14096;SDS011;7125;48.106;11.544;2023-01-29T07:46:17;10.63;;;8.13;;
14096;SDS011;7125;48.106;11.544;2023-01-29T07:48:44;11.43;;;8.40;;
14096;SDS011;7125;48.106;11.544;2023-01-29T07:51:11;10.80;;;8.77;;
14096;SDS011;7125;48.106;11.544;2023-01-29T07:53:38;11.20;;;10.03;;
14096;SDS011;7125;48.106;11.544;2023-01-29T07:56:08;10.40;;;7.90;;
14096;SDS011;7125;48.106;11.544;2023-01-29T07:58:35;12.10;;;8.40;;
14096;SDS011;7125;48.106;11.544;2023-01-29T08:01:03;10.47;;;7.93;;
14096;SDS011;7125;48.106;11.544;2023-01-29T08:03:31;12.43;;;7.40;;
14096;SDS011;7125;48.106;11.544;2023-01-29T08:05:58;8.87;;;6.40;;
14096;SDS011;7125;48.106;11.544;2023-01-29T08:08:25;8.83;;;6.33;;
14096;SDS011;7125;48.106;11.544;2023-01-29T08:10:53;8.90;;;7.93;;
14096;SDS011;7125;48.106;11.544;2023-01-29T08:13:21;8.90;;;6.57;;
14096;SDS011;7125;48.106;11.544;2023-01-29T08:15:48;9.97;;;7.93;;
14096;SDS011;7125;48.106;11.544;2023-01-29T08:18:15;8.73;;;7.20;;
14096;SDS011;7125;48.106;11.544;2023-01-29T08:20:42;15.30;;;12.07;;
14096;SDS011;7125;48.106;11.544;2023-01-29T08:23:10;11.77;;;9.87;;
14096;SDS011;7125;48.106;11.544;2023-01-29T08:25:39;8.90;;;8.00;;
14096;SDS011;7125;48.106;11.544;2023-01-29T08:28:06;8.13;;;5.37;;
14096;SDS011;7125;48.106;11.544;2023-01-29T08:30:35;7.37;;;5.17;;
14096;SDS011;7125;48.106;11.544;2023-01-29T08:33:03;6.40;;;5.80;;
14096;SDS011;7125;48.106;11.544;2023-01-29T08:35:30;6.10;;;4.80;;
14096;SDS011;7125;48.106;11.544;2023-01-29T08:37:58;7.03;;;5.17;;
14096;SDS011;7125;48.106;11.544;2023-01-29T08:40:28;5.50;;;4.80;;
14096;SDS011;7125;48.106;11.544;2023-01-29T08:42:57;7.33;;;6.03;;
14096;SDS011;7125;48.106;11.544;2023-01-29T08:45:24;8.57;;;6.50;;
14096;SDS011;7125;48.106;11.544;2023-01-29T08:47:52;7.67;;;6.37;;
14096;SDS011;7125;48.106;11.544;2023-01-29T08:50:19;6.47;;;5.30;;
14096;SDS011;7125;48.106;11.544;2023-01-29T08:52:46;8.97;;;6.10;;
14096;SDS011;7125;48.106;11.544;2023-01-29T08:55:13;8.57;;;5.90;;
14096;SDS011;7125;48.106;11.544;2023-01-29T08:57:40;6.23;;;4.77;;
14096;SDS011;7125;48.106;11.544;2023-01-29T09:00:07;8.37;;;6.03;;
14096;SDS011;7125;48.106;11.544;2023-01-29T09:02:35;7.30;;;5.20;;
14096;SDS011;7125;48.106;11.544;2023-01-29T09:05:04;7.10;;;5.30;;
14096;SDS011;7125;48.106;11.544;2023-01-29T09:07:32;7.57;;;5.63;;
14096;SDS011;7125;48.106;11.544;2023-01-29T09:09:59;8.37;;;5.47;;
14096;SDS011;7125;48.106;11.544;2023-01-29T09:12:26;8.80;;;6.57;;
14096;SDS011;7125;48.106;11.544;2023-01-29T09:14:55;7.63;;;5.40;;
14096;SDS011;7125;48.106;11.544;2023-01-29T09:17:22;8.10;;;5.60;;
14096;SDS011;7125;48.106;11.544;2023-01-29T09:19:49;8.17;;;5.17;;
14096;SDS011;7125;48.106;11.544;2023-01-29T09:22:18;5.83;;;5.23;;
14096;SDS011;7125;48.106;11.544;2023-01-29T09:24:45;6.40;;;4.93;;
14096;SDS011;7125;48.106;11.544;2023-01-29T09:27:12;6.70;;;5.23;;
14096;SDS011;7125;48.106;11.544;2023-01-29T09:29:39;7.53;;;5.70;;
14096;SDS011;7125;48.106;11.544;2023-01-29T09:32:06;9.00;;;6.17;;
14096;SDS011;7125;48.106;11.544;2023-01-29T09:34:33;7.30;;;5.70;;
14096;SDS011;7125;48.106;11.544;2023-01-29T09:37:01;8.23;;;6.50;;
14096;SDS011;7125;48.106;11.544;2023-01-29T09:39:29;6.07;;;5.03;;
14096;SDS011;7125;48.106;11.544;2023-01-29T09:41:57;8.60;;;6.10;;
14096;SDS011;7125;48.106;11.544;2023-01-29T09:44:37;7.97;;;5.80;;
14096;SDS011;7125;48.106;11.544;2023-01-29T09:47:15;7.10;;;5.33;;
14096;SDS011;7125;48.106;11.544;2023-01-29T09:49:44;7.67;;;5.70;;
14096;SDS011;7125;48.106;11.544;2023-01-29T09:52:15;8.97;;;6.60;;
14096;SDS011;7125;48.106;11.544;2023-01-29T09:54:49;7.33;;;5.30;;
14096;SDS011;7125;48.106;11.544;2023-01-29T09:57:23;6.77;;;5.40;;
14096;SDS011;7125;48.106;11.544;2023-01-29T09:59:53;7.53;;;5.50;;
14096;SDS011;7125;48.106;11.544;2023-01-29T10:02:24;9.27;;;6.77;;
14096;SDS011;7125;48.106;11.544;2023-01-29T10:05:12;10.07;;;8.27;;
14096;SDS011;7125;48.106;11.544;2023-01-29T10:07:54;9.70;;;7.90;;
14096;SDS011;7125;48.106;11.544;2023-01-29T10:10:48;12.27;;;8.67;;
14096;SDS011;7125;48.106;11.544;2023-01-29T10:13:19;10.40;;;9.40;;
14096;SDS011;7125;48.106;11.544;2023-01-29T10:15:58;9.00;;;8.10;;
14096;SDS011;7125;48.106;11.544;2023-01-29T10:21:51;12.63;;;9.43;;
14096;SDS011;7125;48.106;11.544;2023-01-29T10:24:34;11.60;;;9.33;;
14096;SDS011;7125;48.106;11.544;2023-01-29T10:27:08;10.93;;;9.83;;
14096;SDS011;7125;48.106;11.544;2023-01-29T10:29:39;10.07;;;9.00;;
14096;SDS011;7125;48.106;11.544;2023-01-29T10:32:10;15.23;;;9.63;;
14096;SDS011;7125;48.106;11.544;2023-01-29T10:34:41;10.97;;;9.20;;
14096;SDS011;7125;48.106;11.544;2023-01-29T10:37:14;11.00;;;9.80;;
14096;SDS011;7125;48.106;11.544;2023-01-29T10:39:43;12.17;;;9.43;;
14096;SDS011;7125;48.106;11.544;2023-01-29T10:42:17;9.87;;;8.80;;
14096;SDS011;7125;48.106;11.544;2023-01-29T10:44:54;10.40;;;8.83;;
14096;SDS011;7125;48.106;11.544;2023-01-29T10:47:36;10.97;;;9.63;;
14096;SDS011;7125;48.106;11.544;2023-01-29T10:50:36;13.93;;;10.73;;
14096;SDS011;7125;48.106;11.544;2023-01-29T10:53:24;13.77;;;11.00;;
14096;SDS011;7125;48.106;11.544;2023-01-29T10:56:01;15.07;;;10.97;;
14096;SDS011;7125;48.106;11.544;2023-01-29T10:58:40;13.37;;;9.80;;
14096;SDS011;7125;48.106;11.544;2023-01-29T11:01:13;14.47;;;10.97;;
14096;SDS011;7125;48.106;11.544;2023-01-29T11:03:40;10.50;;;9.20;;
14096;SDS011;7125;48.106;11.544;2023-01-29T11:06:09;11.67;;;9.40;;
14096;SDS011;7125;48.106;11.544;2023-01-29T11:08:41;10.90;;;9.80;;
14096;SDS011;7125;48.106;11.544;2023-01-29T11:11:12;11.13;;;9.53;;
14096;SDS011;7125;48.106;11.544;2023-01-29T11:13:43;13.53;;;10.37;;
14096;SDS011;7125;48.106;11.544;2023-01-29T11:16:14;11.83;;;10.00;;
14096;SDS011;7125;48.106;11.544;2023-01-29T11:18:48;10.63;;;8.57;;
14096;SDS011;7125;48.106;11.544;2023-01-29T11:21:20;11.67;;;10.43;;
14096;SDS011;7125;48.106;11.544;2023-01-29T11:23:48;10.47;;;9.20;;
14096;SDS011;7125;48.106;11.544;2023-01-29T11:26:17;12.40;;;9.13;;
14096;SDS011;7125;48.106;11.544;2023-01-29T11:28:48;12.77;;;10.57;;
14096;SDS011;7125;48.106;11.544;2023-01-29T11:31:17;9.63;;;8.63;;
14096;SDS011;7125;48.106;11.544;2023-01-29T11:33:46;10.67;;;9.00;;
14096;SDS011;7125;48.106;11.544;2023-01-29T11:36:19;11.50;;;9.70;;
14096;SDS011;7125;48.106;11.544;2023-01-29T11:39:09;8.80;;;8.00;;
14096;SDS011;7125;48.106;11.544;2023-01-29T11:41:41;11.23;;;9.67;;
14096;SDS011;7125;48.106;11.544;2023-01-29T11:44:21;10.43;;;8.90;;
14096;SDS011;7125;48.106;11.544;2023-01-29T11:46:53;12.63;;;9.40;;
14096;SDS011;7125;48.106;11.544;2023-01-29T11:49:25;10.20;;;8.73;;
14096;SDS011;7125;48.106;11.544;2023-01-29T11:51:56;9.97;;;8.80;;
14096;SDS011;7125;48.106;11.544;2023-01-29T11:54:28;11.83;;;8.40;;
14096;SDS011;7125;48.106;11.544;2023-01-29T11:56:57;10.53;;;8.93;;
14096;SDS011;7125;48.106;11.544;2023-01-29T11:59:36;11.77;;;9.93;;
14096;SDS011;7125;48.106;11.544;2023-01-29T12:04:56;12.57;;;10.97;;
14096;SDS011;7125;48.106;11.544;2023-01-29T12:07:27;12.23;;;9.83;;
14096;SDS011;7125;48.106;11.544;2023-01-29T12:09:55;13.17;;;11.00;;
14096;SDS011;7125;48.106;11.544;2023-01-29T12:12:28;13.00;;;11.00;;
14096;SDS011;7125;48.106;11.544;2023-01-29T12:18:02;12.43;;;10.13;;
14096;SDS011;7125;48.106;11.544;2023-01-29T12:20:38;13.27;;;10.40;;
14096;SDS011;7125;48.106;11.544;2023-01-29T12:23:16;10.93;;;8.87;;
14096;SDS011;7125;48.106;11.544;2023-01-29T12:25:54;12.27;;;9.77;;
14096;SDS011;7125;48.106;11.544;2023-01-29T12:28:46;12.07;;;9.43;;
14096;SDS011;7125;48.106;11.544;2023-01-29T12:31:27;13.77;;;10.63;;
14096;SDS011;7125;48.106;11.544;2023-01-29T12:34:04;10.73;;;9.40;;
14096;SDS011;7125;48.106;11.544;2023-01-29T12:36:40;14.03;;;11.27;;
14096;SDS011;7125;48.106;11.544;2023-01-29T12:39:17;13.70;;;9.67;;
14096;SDS011;7125;48.106;11.544;2023-01-29T12:41:50;11.60;;;10.40;;
14096;SDS011;7125;48.106;11.544;2023-01-29T12:44:23;11.57;;;9.80;;
14096;SDS011;7125;48.106;11.544;2023-01-29T12:46:57;13.20;;;11.30;;
14096;SDS011;7125;48.106;11.544;2023-01-29T12:49:28;12.53;;;9.80;;
14096;SDS011;7125;48.106;11.544;2023-01-29T12:52:01;12.50;;;10.43;;
14096;SDS011;7125;48.106;11.544;2023-01-29T12:54:34;12.33;;;9.87;;
14096;SDS011;7125;48.106;11.544;2023-01-29T12:57:07;11.57;;;9.00;;
14096;SDS011;7125;48.106;11.544;2023-01-29T12:59:40;12.10;;;9.20;;
14096;SDS011;7125;48.106;11.544;2023-01-29T13:02:16;10.33;;;9.23;;
14096;SDS011;7125;48.106;11.544;2023-01-29T13:04:52;9.90;;;8.90;;
14096;SDS011;7125;48.106;11.544;2023-01-29T13:07:23;11.50;;;9.40;;
14096;SDS011;7125;48.106;11.544;2023-01-29T13:09:56;11.50;;;9.77;;
14096;SDS011;7125;48.106;11.544;2023-01-29T13:12:31;9.80;;;8.63;;
14096;SDS011;7125;48.106;11.544;2023-01-29T13:15:01;10.50;;;9.30;;
14096;SDS011;7125;48.106;11.544;2023-01-29T13:17:35;13.33;;;10.10;;
14096;SDS011;7125;48.106;11.544;2023-01-29T13:20:08;11.67;;;10.47;;
14096;SDS011;7125;48.106;11.544;2023-01-29T13:22:38;12.40;;;9.83;;
14096;SDS011;7125;48.106;11.544;2023-01-29T13:25:11;9.97;;;8.37;;
14096;SDS011;7125;48.106;11.544;2023-01-29T13:27:41;12.40;;;9.03;;
14096;SDS011;7125;48.106;11.544;2023-01-29T13:30:22;12.47;;;8.87;;
14096;SDS011;7125;48.106;11.544;2023-01-29T13:32:52;8.63;;;7.73;;
14096;SDS011;7125;48.106;11.544;2023-01-29T13:35:20;8.27;;;7.43;;
14096;SDS011;7125;48.106;11.544;2023-01-29T13:37:49;9.43;;;7.73;;
14096;SDS011;7125;48.106;11.544;2023-01-29T13:40:19;10.73;;;8.20;;
14096;SDS011;7125;48.106;11.544;2023-01-29T13:42:49;9.20;;;7.53;;
14096;SDS011;7125;48.106;11.544;2023-01-29T13:45:19;11.43;;;7.43;;
14096;SDS011;7125;48.106;11.544;2023-01-29T13:47:49;11.43;;;7.57;;
14096;SDS011;7125;48.106;11.544;2023-01-29T13:50:19;9.30;;;7.10;;
14096;SDS011;7125;48.106;11.544;2023-01-29T13:52:52;8.80;;;7.90;;
14096;SDS011;7125;48.106;11.544;2023-01-29T13:55:22;9.27;;;7.20;;
14096;SDS011;7125;48.106;11.544;2023-01-29T13:57:56;8.23;;;7.37;;
14096;SDS011;7125;48.106;11.544;2023-01-29T14:09:32;7.73;;;6.67;;
14096;SDS011;7125;48.106;11.544;2023-01-29T14:12:31;8.63;;;7.30;;
14096;SDS011;7125;48.106;11.544;2023-01-29T14:18:11;7.93;;;7.13;;
14096;SDS011;7125;48.106;11.544;2023-01-29T14:20:51;8.33;;;6.83;;
14096;SDS011;7125;48.106;11.544;2023-01-29T14:23:44;7.80;;;7.00;;
14096;SDS011;7125;48.106;11.544;2023-01-29T14:26:21;8.50;;;6.80;;
14096;SDS011;7125;48.106;11.544;2023-01-29T14:28:55;12.60;;;6.17;;
14096;SDS011;7125;48.106;11.544;2023-01-29T14:31:30;7.57;;;5.20;;
14096;SDS011;7125;48.106;11.544;2023-01-29T14:34:02;6.93;;;5.60;;
14096;SDS011;7125;48.106;11.544;2023-01-29T14:36:37;6.87;;;5.30;;
14096;SDS011;7125;48.106;11.544;2023-01-29T14:39:15;7.77;;;5.10;;
14096;SDS011;7125;48.106;11.544;2023-01-29T14:41:49;7.77;;;5.03;;
14096;SDS011;7125;48.106;11.544;2023-01-29T14:47:17;7.13;;;5.17;;
14096;SDS011;7125;48.106;11.544;2023-01-29T14:49:49;8.07;;;5.50;;
14096;SDS011;7125;48.106;11.544;2023-01-29T14:52:18;7.20;;;4.83;;
14096;SDS011;7125;48.106;11.544;2023-01-29T14:54:49;7.50;;;5.53;;
14096;SDS011;7125;48.106;11.544;2023-01-29T14:57:18;6.37;;;5.50;;
14096;SDS011;7125;48.106;11.544;2023-01-29T14:59:48;8.13;;;5.30;;
14096;SDS011;7125;48.106;11.544;2023-01-29T15:02:21;9.17;;;6.47;;
14096;SDS011;7125;48.106;11.544;2023-01-29T15:04:52;6.60;;;5.43;;
14096;SDS011;7125;48.106;11.544;2023-01-29T15:07:26;7.87;;;5.70;;
14096;SDS011;7125;48.106;11.544;2023-01-29T15:10:02;7.70;;;5.57;;
14096;SDS011;7125;48.106;11.544;2023-01-29T15:12:35;11.30;;;6.57;;
14096;SDS011;7125;48.106;11.544;2023-01-29T15:15:14;6.53;;;5.90;;
14096;SDS011;7125;48.106;11.544;2023-01-29T15:17:46;9.03;;;7.27;;
14096;SDS011;7125;48.106;11.544;2023-01-29T15:20:24;8.53;;;7.20;;
14096;SDS011;7125;48.106;11.544;2023-01-29T15:22:52;8.63;;;7.67;;
14096;SDS011;7125;48.106;11.544;2023-01-29T15:25:21;8.17;;;6.40;;